sensor_id;sensor_type;location;lat;lon;timestamp;P1;durP1;ratioP1;P2;durP2;ratioP2
24891;SDS011;12954;50.688;10.908;2023-04-06T00:00:34;3.90;;;2.70;;
24891;SDS011;12954;50.688;10.908;2023-04-06T00:03:02;4.45;;;3.05;;
24891;SDS011;12954;50.688;10.908;2023-04-06T00:05:32;5.57;;;3.28;;
24891;SDS011;12954;50.688;10.908;2023-04-06T00:08:01;3.92;;;2.90;;
24891;SDS011;12954;50.688;10.908;2023-04-06T00:10:30;4.47;;;3.00;;
24891;SDS011;12954;50.688;10.908;2023-04-06T00:12:58;6.00;;;3.00;;
24891;SDS011;12954;50.688;10.908;2023-04-06T00:15:27;5.40;;;3.15;;
24891;SDS011;12954;50.688;10.908;2023-04-06T00:17:55;6.93;;;2.97;;
24891;SDS011;12954;50.688;10.908;2023-04-06T00:20:24;5.57;;;2.70;;
24891;SDS011;12954;50.688;10.908;2023-04-06T00:22:54;4.40;;;2.80;;
24891;SDS011;12954;50.688;10.908;2023-04-06T00:25:23;6.35;;;2.70;;
24891;SDS011;12954;50.688;10.908;2023-04-06T00:27:51;3.75;;;2.90;;
24891;SDS011;12954;50.688;10.908;2023-04-06T00:30:20;5.57;;;2.88;;
24891;SDS011;12954;50.688;10.908;2023-04-06T00:32:48;6.32;;;2.90;;
24891;SDS011;12954;50.688;10.908;2023-04-06T00:35:17;5.22;;;2.65;;
24891;SDS011;12954;50.688;10.908;2023-04-06T00:37:46;6.78;;;2.72;;
24891;SDS011;12954;50.688;10.908;2023-04-06T00:40:17;4.30;;;2.55;;
24891;SDS011;12954;50.688;10.908;2023-04-06T00:42:46;5.50;;;2.92;;
24891;SDS011;12954;50.688;10.908;2023-04-06T00:45:14;5.47;;;2.88;;
24891;SDS011;12954;50.688;10.908;2023-04-06T00:47:43;7.15;;;2.72;;
24891;SDS011;12954;50.688;10.908;2023-04-06T00:50:12;7.60;;;2.83;;
24891;SDS011;12954;50.688;10.908;2023-04-06T00:52:41;3.30;;;2.55;;
24891;SDS011;12954;50.688;10.908;2023-04-06T00:55:09;4.97;;;3.30;;
24891;SDS011;12954;50.688;10.908;2023-04-06T00:57:39;4.03;;;3.22;;
24891;SDS011;12954;50.688;10.908;2023-04-06T01:00:08;6.25;;;2.80;;
24891;SDS011;12954;50.688;10.908;2023-04-06T01:02:37;4.63;;;2.80;;
24891;SDS011;12954;50.688;10.908;2023-04-06T01:05:06;3.97;;;3.10;;
24891;SDS011;12954;50.688;10.908;2023-04-06T01:07:35;4.35;;;3.00;;
24891;SDS011;12954;50.688;10.908;2023-04-06T01:10:03;4.13;;;2.95;;
24891;SDS011;12954;50.688;10.908;2023-04-06T01:12:32;4.68;;;3.05;;
24891;SDS011;12954;50.688;10.908;2023-04-06T01:15:04;6.03;;;3.35;;
24891;SDS011;12954;50.688;10.908;2023-04-06T01:17:34;4.95;;;3.05;;
24891;SDS011;12954;50.688;10.908;2023-04-06T01:20:03;6.35;;;3.08;;
24891;SDS011;12954;50.688;10.908;2023-04-06T01:22:34;6.30;;;3.20;;
24891;SDS011;12954;50.688;10.908;2023-04-06T01:25:02;4.97;;;3.25;;
24891;SDS011;12954;50.688;10.908;2023-04-06T01:27:31;4.45;;;2.88;;
24891;SDS011;12954;50.688;10.908;2023-04-06T01:30:00;3.40;;;2.95;;
24891;SDS011;12954;50.688;10.908;2023-04-06T01:32:28;4.00;;;2.60;;
24891;SDS011;12954;50.688;10.908;2023-04-06T01:34:57;3.88;;;3.05;;
24891;SDS011;12954;50.688;10.908;2023-04-06T01:37:25;6.28;;;2.95;;
24891;SDS011;12954;50.688;10.908;2023-04-06T01:39:55;6.32;;;3.22;;
24891;SDS011;12954;50.688;10.908;2023-04-06T01:42:23;3.90;;;2.90;;
24891;SDS011;12954;50.688;10.908;2023-04-06T01:44:52;3.65;;;2.80;;
24891;SDS011;12954;50.688;10.908;2023-04-06T01:47:21;4.85;;;3.10;;
24891;SDS011;12954;50.688;10.908;2023-04-06T01:49:49;6.35;;;3.20;;
24891;SDS011;12954;50.688;10.908;2023-04-06T01:52:18;8.80;;;2.95;;
24891;SDS011;12954;50.688;10.908;2023-04-06T01:54:47;4.75;;;2.63;;
24891;SDS011;12954;50.688;10.908;2023-04-06T01:57:17;5.40;;;3.20;;
24891;SDS011;12954;50.688;10.908;2023-04-06T01:59:46;4.43;;;2.88;;
24891;SDS011;12954;50.688;10.908;2023-04-06T02:02:14;4.82;;;2.78;;
24891;SDS011;12954;50.688;10.908;2023-04-06T02:04:43;4.65;;;3.15;;
24891;SDS011;12954;50.688;10.908;2023-04-06T02:07:12;4.18;;;3.25;;
24891;SDS011;12954;50.688;10.908;2023-04-06T02:09:40;4.45;;;2.92;;
24891;SDS011;12954;50.688;10.908;2023-04-06T02:12:09;4.97;;;2.90;;
24891;SDS011;12954;50.688;10.908;2023-04-06T02:14:39;7.82;;;3.35;;
24891;SDS011;12954;50.688;10.908;2023-04-06T02:17:07;5.55;;;3.13;;
24891;SDS011;12954;50.688;10.908;2023-04-06T02:19:36;6.75;;;3.22;;
24891;SDS011;12954;50.688;10.908;2023-04-06T02:22:05;7.68;;;2.90;;
24891;SDS011;12954;50.688;10.908;2023-04-06T02:24:33;5.38;;;3.13;;
24891;SDS011;12954;50.688;10.908;2023-04-06T02:27:02;5.65;;;3.30;;
24891;SDS011;12954;50.688;10.908;2023-04-06T02:29:30;4.78;;;3.47;;
24891;SDS011;12954;50.688;10.908;2023-04-06T02:32:00;5.40;;;3.60;;
24891;SDS011;12954;50.688;10.908;2023-04-06T02:34:29;5.85;;;3.70;;
24891;SDS011;12954;50.688;10.908;2023-04-06T02:36:57;4.47;;;2.80;;
24891;SDS011;12954;50.688;10.908;2023-04-06T02:39:26;4.90;;;3.38;;
24891;SDS011;12954;50.688;10.908;2023-04-06T02:41:54;4.72;;;3.10;;
24891;SDS011;12954;50.688;10.908;2023-04-06T02:44:23;6.60;;;3.38;;
24891;SDS011;12954;50.688;10.908;2023-04-06T02:46:52;4.45;;;3.08;;
24891;SDS011;12954;50.688;10.908;2023-04-06T02:49:22;4.57;;;3.22;;
24891;SDS011;12954;50.688;10.908;2023-04-06T02:51:50;6.25;;;2.92;;
24891;SDS011;12954;50.688;10.908;2023-04-06T02:54:18;4.68;;;2.75;;
24891;SDS011;12954;50.688;10.908;2023-04-06T02:56:47;3.80;;;2.70;;
24891;SDS011;12954;50.688;10.908;2023-04-06T02:59:15;4.63;;;2.72;;
24891;SDS011;12954;50.688;10.908;2023-04-06T03:01:44;5.18;;;2.95;;
24891;SDS011;12954;50.688;10.908;2023-04-06T03:04:13;7.65;;;3.78;;
24891;SDS011;12954;50.688;10.908;2023-04-06T03:06:42;3.22;;;2.53;;
24891;SDS011;12954;50.688;10.908;2023-04-06T03:09:11;5.60;;;2.90;;
24891;SDS011;12954;50.688;10.908;2023-04-06T03:11:40;5.88;;;3.17;;
24891;SDS011;12954;50.688;10.908;2023-04-06T03:14:09;4.05;;;2.85;;
24891;SDS011;12954;50.688;10.908;2023-04-06T03:16:37;3.97;;;2.90;;
24891;SDS011;12954;50.688;10.908;2023-04-06T03:19:05;3.78;;;2.75;;
24891;SDS011;12954;50.688;10.908;2023-04-06T03:21:34;4.10;;;3.08;;
24891;SDS011;12954;50.688;10.908;2023-04-06T03:24:04;5.32;;;3.42;;
24891;SDS011;12954;50.688;10.908;2023-04-06T03:26:33;5.20;;;2.70;;
24891;SDS011;12954;50.688;10.908;2023-04-06T03:29:02;4.97;;;2.80;;
24891;SDS011;12954;50.688;10.908;2023-04-06T03:31:30;4.50;;;3.08;;
24891;SDS011;12954;50.688;10.908;2023-04-06T03:33:58;5.78;;;2.78;;
24891;SDS011;12954;50.688;10.908;2023-04-06T03:36:27;4.82;;;2.78;;
24891;SDS011;12954;50.688;10.908;2023-04-06T03:38:56;4.57;;;2.60;;
24891;SDS011;12954;50.688;10.908;2023-04-06T03:41:26;4.22;;;2.67;;
24891;SDS011;12954;50.688;10.908;2023-04-06T03:43:54;5.43;;;3.15;;
24891;SDS011;12954;50.688;10.908;2023-04-06T03:46:23;5.03;;;3.28;;
24891;SDS011;12954;50.688;10.908;2023-04-06T03:48:52;5.60;;;3.15;;
24891;SDS011;12954;50.688;10.908;2023-04-06T03:51:20;5.22;;;2.90;;
24891;SDS011;12954;50.688;10.908;2023-04-06T03:53:49;4.55;;;2.92;;
24891;SDS011;12954;50.688;10.908;2023-04-06T03:56:17;5.05;;;3.22;;
24891;SDS011;12954;50.688;10.908;2023-04-06T03:58:47;5.28;;;3.08;;
24891;SDS011;12954;50.688;10.908;2023-04-06T04:01:17;5.72;;;3.20;;
24891;SDS011;12954;50.688;10.908;2023-04-06T04:03:47;5.07;;;2.88;;
24891;SDS011;12954;50.688;10.908;2023-04-06T04:06:17;5.25;;;3.25;;
24891;SDS011;12954;50.688;10.908;2023-04-06T04:08:45;5.38;;;3.08;;
24891;SDS011;12954;50.688;10.908;2023-04-06T04:11:14;4.97;;;3.00;;
24891;SDS011;12954;50.688;10.908;2023-04-06T04:13:43;6.85;;;2.92;;
24891;SDS011;12954;50.688;10.908;2023-04-06T04:16:13;4.00;;;2.67;;
24891;SDS011;12954;50.688;10.908;2023-04-06T04:18:41;5.03;;;3.03;;
24891;SDS011;12954;50.688;10.908;2023-04-06T04:21:11;6.18;;;2.90;;
24891;SDS011;12954;50.688;10.908;2023-04-06T04:23:40;5.95;;;3.40;;
24891;SDS011;12954;50.688;10.908;2023-04-06T04:26:08;5.70;;;3.63;;
24891;SDS011;12954;50.688;10.908;2023-04-06T04:28:37;6.13;;;3.15;;
24891;SDS011;12954;50.688;10.908;2023-04-06T04:31:05;4.63;;;3.17;;
24891;SDS011;12954;50.688;10.908;2023-04-06T04:33:36;4.88;;;2.83;;
24891;SDS011;12954;50.688;10.908;2023-04-06T04:36:05;7.25;;;4.10;;
24891;SDS011;12954;50.688;10.908;2023-04-06T04:38:33;4.38;;;3.22;;
24891;SDS011;12954;50.688;10.908;2023-04-06T04:41:02;15.02;;;8.73;;
24891;SDS011;12954;50.688;10.908;2023-04-06T04:43:30;9.18;;;4.25;;
24891;SDS011;12954;50.688;10.908;2023-04-06T04:45:59;8.07;;;4.25;;
24891;SDS011;12954;50.688;10.908;2023-04-06T04:48:28;9.93;;;3.88;;
24891;SDS011;12954;50.688;10.908;2023-04-06T04:50:57;6.50;;;3.00;;
24891;SDS011;12954;50.688;10.908;2023-04-06T04:53:26;5.95;;;3.25;;
24891;SDS011;12954;50.688;10.908;2023-04-06T04:55:55;3.85;;;2.72;;
24891;SDS011;12954;50.688;10.908;2023-04-06T04:58:23;5.32;;;3.10;;
24891;SDS011;12954;50.688;10.908;2023-04-06T05:00:51;3.78;;;2.85;;
24891;SDS011;12954;50.688;10.908;2023-04-06T05:03:20;5.45;;;3.15;;
24891;SDS011;12954;50.688;10.908;2023-04-06T05:05:51;5.50;;;3.50;;
24891;SDS011;12954;50.688;10.908;2023-04-06T05:08:21;5.53;;;3.50;;
24891;SDS011;12954;50.688;10.908;2023-04-06T05:10:49;7.18;;;3.42;;
24891;SDS011;12954;50.688;10.908;2023-04-06T05:13:18;3.28;;;2.67;;
24891;SDS011;12954;50.688;10.908;2023-04-06T05:15:46;5.53;;;3.08;;
24891;SDS011;12954;50.688;10.908;2023-04-06T05:18:15;5.28;;;3.20;;
24891;SDS011;12954;50.688;10.908;2023-04-06T05:20:44;5.82;;;2.92;;
24891;SDS011;12954;50.688;10.908;2023-04-06T05:23:12;6.70;;;3.17;;
24891;SDS011;12954;50.688;10.908;2023-04-06T05:25:42;5.53;;;3.05;;
24891;SDS011;12954;50.688;10.908;2023-04-06T05:28:11;4.88;;;3.13;;
24891;SDS011;12954;50.688;10.908;2023-04-06T05:30:42;6.00;;;3.38;;
24891;SDS011;12954;50.688;10.908;2023-04-06T05:33:11;5.78;;;2.95;;
24891;SDS011;12954;50.688;10.908;2023-04-06T05:35:39;5.35;;;3.13;;
24891;SDS011;12954;50.688;10.908;2023-04-06T05:38:08;5.55;;;3.08;;
24891;SDS011;12954;50.688;10.908;2023-04-06T05:40:38;7.47;;;3.75;;
24891;SDS011;12954;50.688;10.908;2023-04-06T05:43:09;3.97;;;2.97;;
24891;SDS011;12954;50.688;10.908;2023-04-06T05:45:37;6.65;;;2.80;;
24891;SDS011;12954;50.688;10.908;2023-04-06T05:48:06;5.35;;;3.60;;
24891;SDS011;12954;50.688;10.908;2023-04-06T05:50:34;6.78;;;3.40;;
24891;SDS011;12954;50.688;10.908;2023-04-06T05:53:03;5.43;;;3.58;;
24891;SDS011;12954;50.688;10.908;2023-04-06T05:55:32;7.25;;;3.55;;
24891;SDS011;12954;50.688;10.908;2023-04-06T05:58:00;3.65;;;2.70;;
24891;SDS011;12954;50.688;10.908;2023-04-06T06:00:30;6.78;;;3.30;;
24891;SDS011;12954;50.688;10.908;2023-04-06T06:02:59;3.88;;;3.45;;
24891;SDS011;12954;50.688;10.908;2023-04-06T06:05:30;4.82;;;3.22;;
24891;SDS011;12954;50.688;10.908;2023-04-06T06:07:59;5.68;;;3.30;;
24891;SDS011;12954;50.688;10.908;2023-04-06T06:10:29;4.65;;;2.92;;
24891;SDS011;12954;50.688;10.908;2023-04-06T06:12:57;4.68;;;3.22;;
24891;SDS011;12954;50.688;10.908;2023-04-06T06:15:25;5.18;;;3.38;;
24891;SDS011;12954;50.688;10.908;2023-04-06T06:17:55;5.95;;;2.90;;
24891;SDS011;12954;50.688;10.908;2023-04-06T06:20:24;5.25;;;2.80;;
24891;SDS011;12954;50.688;10.908;2023-04-06T06:22:52;4.90;;;3.20;;
24891;SDS011;12954;50.688;10.908;2023-04-06T06:25:21;6.22;;;3.45;;
24891;SDS011;12954;50.688;10.908;2023-04-06T06:27:49;3.45;;;3.08;;
24891;SDS011;12954;50.688;10.908;2023-04-06T06:30:18;5.30;;;3.22;;
24891;SDS011;12954;50.688;10.908;2023-04-06T06:32:49;5.30;;;3.42;;
24891;SDS011;12954;50.688;10.908;2023-04-06T06:35:19;5.70;;;3.60;;
24891;SDS011;12954;50.688;10.908;2023-04-06T06:37:48;4.70;;;3.30;;
24891;SDS011;12954;50.688;10.908;2023-04-06T06:40:16;5.18;;;3.13;;
24891;SDS011;12954;50.688;10.908;2023-04-06T06:42:46;5.78;;;2.88;;
24891;SDS011;12954;50.688;10.908;2023-04-06T06:45:15;4.43;;;3.25;;
24891;SDS011;12954;50.688;10.908;2023-04-06T06:47:44;5.35;;;3.67;;
24891;SDS011;12954;50.688;10.908;2023-04-06T06:50:12;4.97;;;3.10;;
24891;SDS011;12954;50.688;10.908;2023-04-06T06:52:42;6.93;;;3.38;;
24891;SDS011;12954;50.688;10.908;2023-04-06T06:55:11;5.15;;;3.50;;
24891;SDS011;12954;50.688;10.908;2023-04-06T06:57:39;5.05;;;3.25;;
24891;SDS011;12954;50.688;10.908;2023-04-06T07:00:09;5.45;;;3.67;;
24891;SDS011;12954;50.688;10.908;2023-04-06T07:02:39;6.53;;;4.22;;
24891;SDS011;12954;50.688;10.908;2023-04-06T07:05:08;6.50;;;4.20;;
24891;SDS011;12954;50.688;10.908;2023-04-06T07:07:54;6.82;;;3.97;;
24891;SDS011;12954;50.688;10.908;2023-04-06T07:10:23;6.95;;;4.28;;
24891;SDS011;12954;50.688;10.908;2023-04-06T07:12:52;5.88;;;3.97;;
24891;SDS011;12954;50.688;10.908;2023-04-06T07:15:20;6.85;;;4.60;;
24891;SDS011;12954;50.688;10.908;2023-04-06T07:17:49;6.95;;;4.28;;
24891;SDS011;12954;50.688;10.908;2023-04-06T07:20:18;7.97;;;4.75;;
24891;SDS011;12954;50.688;10.908;2023-04-06T07:22:47;7.80;;;4.63;;
24891;SDS011;12954;50.688;10.908;2023-04-06T07:25:17;8.23;;;5.32;;
24891;SDS011;12954;50.688;10.908;2023-04-06T07:27:47;8.07;;;5.13;;
24891;SDS011;12954;50.688;10.908;2023-04-06T07:30:15;8.70;;;5.00;;
24891;SDS011;12954;50.688;10.908;2023-04-06T07:32:44;7.22;;;4.95;;
24891;SDS011;12954;50.688;10.908;2023-04-06T07:35:13;8.07;;;5.45;;
24891;SDS011;12954;50.688;10.908;2023-04-06T07:37:42;9.68;;;5.50;;
24891;SDS011;12954;50.688;10.908;2023-04-06T07:40:11;9.10;;;5.32;;
24891;SDS011;12954;50.688;10.908;2023-04-06T07:42:41;10.65;;;5.50;;
24891;SDS011;12954;50.688;10.908;2023-04-06T07:45:10;7.38;;;4.82;;
24891;SDS011;12954;50.688;10.908;2023-04-06T07:47:39;10.55;;;5.10;;
24891;SDS011;12954;50.688;10.908;2023-04-06T07:50:08;8.07;;;5.32;;
24891;SDS011;12954;50.688;10.908;2023-04-06T07:52:38;10.93;;;4.95;;
24891;SDS011;12954;50.688;10.908;2023-04-06T07:55:07;7.22;;;4.65;;
24891;SDS011;12954;50.688;10.908;2023-04-06T07:57:35;5.63;;;4.00;;
24891;SDS011;12954;50.688;10.908;2023-04-06T08:00:07;12.15;;;4.97;;
24891;SDS011;12954;50.688;10.908;2023-04-06T08:02:37;9.05;;;5.00;;
24891;SDS011;12954;50.688;10.908;2023-04-06T08:05:05;6.45;;;4.47;;
24891;SDS011;12954;50.688;10.908;2023-04-06T08:07:34;7.78;;;4.75;;
24891;SDS011;12954;50.688;10.908;2023-04-06T08:10:03;8.20;;;4.72;;
24891;SDS011;12954;50.688;10.908;2023-04-06T08:12:32;6.57;;;4.60;;
24891;SDS011;12954;50.688;10.908;2023-04-06T08:15:01;7.70;;;4.65;;
24891;SDS011;12954;50.688;10.908;2023-04-06T08:17:32;9.68;;;5.13;;
24891;SDS011;12954;50.688;10.908;2023-04-06T08:20:01;8.10;;;4.72;;
24891;SDS011;12954;50.688;10.908;2023-04-06T08:22:31;7.78;;;5.30;;
24891;SDS011;12954;50.688;10.908;2023-04-06T08:24:59;7.20;;;4.95;;
24891;SDS011;12954;50.688;10.908;2023-04-06T08:27:27;7.90;;;5.30;;
24891;SDS011;12954;50.688;10.908;2023-04-06T08:29:56;7.35;;;4.55;;
24891;SDS011;12954;50.688;10.908;2023-04-06T08:32:25;8.35;;;5.00;;
24891;SDS011;12954;50.688;10.908;2023-04-06T08:34:55;7.47;;;4.68;;
24891;SDS011;12954;50.688;10.908;2023-04-06T08:37:24;6.03;;;4.80;;
24891;SDS011;12954;50.688;10.908;2023-04-06T08:39:52;8.00;;;5.43;;
24891;SDS011;12954;50.688;10.908;2023-04-06T08:42:22;6.57;;;4.70;;
24891;SDS011;12954;50.688;10.908;2023-04-06T08:44:56;6.65;;;5.07;;
24891;SDS011;12954;50.688;10.908;2023-04-06T08:47:25;6.93;;;4.72;;
24891;SDS011;12954;50.688;10.908;2023-04-06T08:49:55;7.40;;;4.43;;
24891;SDS011;12954;50.688;10.908;2023-04-06T08:52:24;7.55;;;5.88;;
24891;SDS011;12954;50.688;10.908;2023-04-06T08:54:54;9.00;;;5.28;;
24891;SDS011;12954;50.688;10.908;2023-04-06T08:57:22;7.07;;;5.38;;
24891;SDS011;12954;50.688;10.908;2023-04-06T08:59:52;10.32;;;5.07;;
24891;SDS011;12954;50.688;10.908;2023-04-06T09:02:23;7.30;;;5.18;;
24891;SDS011;12954;50.688;10.908;2023-04-06T09:04:52;8.68;;;4.93;;
24891;SDS011;12954;50.688;10.908;2023-04-06T09:07:23;7.53;;;4.70;;
24891;SDS011;12954;50.688;10.908;2023-04-06T09:09:51;7.43;;;5.00;;
24891;SDS011;12954;50.688;10.908;2023-04-06T09:12:24;5.97;;;4.97;;
24891;SDS011;12954;50.688;10.908;2023-04-06T09:14:54;7.13;;;5.45;;
24891;SDS011;12954;50.688;10.908;2023-04-06T09:17:24;8.10;;;5.40;;
24891;SDS011;12954;50.688;10.908;2023-04-06T09:19:53;7.05;;;4.88;;
24891;SDS011;12954;50.688;10.908;2023-04-06T09:22:24;7.05;;;4.65;;
24891;SDS011;12954;50.688;10.908;2023-04-06T09:24:53;7.28;;;4.80;;
24891;SDS011;12954;50.688;10.908;2023-04-06T09:27:29;7.53;;;4.80;;
24891;SDS011;12954;50.688;10.908;2023-04-06T09:30:05;5.15;;;4.40;;
24891;SDS011;12954;50.688;10.908;2023-04-06T09:32:43;5.85;;;4.78;;
24891;SDS011;12954;50.688;10.908;2023-04-06T09:35:16;9.57;;;5.20;;
24891;SDS011;12954;50.688;10.908;2023-04-06T09:37:48;8.63;;;5.60;;
24891;SDS011;12954;50.688;10.908;2023-04-06T09:40:18;7.20;;;4.70;;
24891;SDS011;12954;50.688;10.908;2023-04-06T09:42:49;6.05;;;4.20;;
24891;SDS011;12954;50.688;10.908;2023-04-06T09:45:20;5.85;;;4.70;;
24891;SDS011;12954;50.688;10.908;2023-04-06T09:47:48;6.22;;;4.18;;
24891;SDS011;12954;50.688;10.908;2023-04-06T09:50:20;10.50;;;4.57;;
24891;SDS011;12954;50.688;10.908;2023-04-06T09:52:51;6.63;;;4.63;;
24891;SDS011;12954;50.688;10.908;2023-04-06T09:55:26;6.55;;;4.80;;
24891;SDS011;12954;50.688;10.908;2023-04-06T09:58:01;6.80;;;4.43;;
24891;SDS011;12954;50.688;10.908;2023-04-06T10:00:39;6.40;;;4.55;;
24891;SDS011;12954;50.688;10.908;2023-04-06T10:03:13;5.75;;;4.07;;
24891;SDS011;12954;50.688;10.908;2023-04-06T10:05:54;6.57;;;4.13;;
24891;SDS011;12954;50.688;10.908;2023-04-06T10:08:27;7.30;;;4.18;;
24891;SDS011;12954;50.688;10.908;2023-04-06T10:10:58;6.60;;;5.03;;
24891;SDS011;12954;50.688;10.908;2023-04-06T10:13:28;5.40;;;4.45;;
24891;SDS011;12954;50.688;10.908;2023-04-06T10:15:56;5.97;;;4.90;;
24891;SDS011;12954;50.688;10.908;2023-04-06T10:18:27;9.10;;;4.70;;
24891;SDS011;12954;50.688;10.908;2023-04-06T10:20:57;8.20;;;5.00;;
24891;SDS011;12954;50.688;10.908;2023-04-06T10:26:02;6.93;;;4.75;;
24891;SDS011;12954;50.688;10.908;2023-04-06T10:28:31;5.60;;;4.50;;
24891;SDS011;12954;50.688;10.908;2023-04-06T10:31:02;5.72;;;4.60;;
24891;SDS011;12954;50.688;10.908;2023-04-06T10:33:33;7.57;;;4.65;;
24891;SDS011;12954;50.688;10.908;2023-04-06T10:36:09;10.65;;;4.50;;
24891;SDS011;12954;50.688;10.908;2023-04-06T10:38:40;8.45;;;4.60;;
24891;SDS011;12954;50.688;10.908;2023-04-06T10:43:54;6.10;;;4.32;;
24891;SDS011;12954;50.688;10.908;2023-04-06T10:46:24;6.53;;;4.70;;
24891;SDS011;12954;50.688;10.908;2023-04-06T10:48:53;7.20;;;4.93;;
24891;SDS011;12954;50.688;10.908;2023-04-06T10:51:24;6.95;;;4.72;;
24891;SDS011;12954;50.688;10.908;2023-04-06T10:53:56;5.15;;;4.38;;
24891;SDS011;12954;50.688;10.908;2023-04-06T10:56:25;7.32;;;4.35;;
24891;SDS011;12954;50.688;10.908;2023-04-06T10:58:54;6.47;;;5.07;;
24891;SDS011;12954;50.688;10.908;2023-04-06T11:01:23;7.10;;;5.35;;
24891;SDS011;12954;50.688;10.908;2023-04-06T11:03:53;9.40;;;5.32;;
24891;SDS011;12954;50.688;10.908;2023-04-06T11:06:25;6.25;;;4.70;;
24891;SDS011;12954;50.688;10.908;2023-04-06T11:08:57;7.45;;;4.93;;
24891;SDS011;12954;50.688;10.908;2023-04-06T11:11:26;6.50;;;5.20;;
24891;SDS011;12954;50.688;10.908;2023-04-06T11:13:55;7.07;;;5.07;;
24891;SDS011;12954;50.688;10.908;2023-04-06T11:16:26;6.43;;;4.78;;
24891;SDS011;12954;50.688;10.908;2023-04-06T11:18:56;7.57;;;5.80;;
24891;SDS011;12954;50.688;10.908;2023-04-06T11:21:33;6.75;;;5.00;;
24891;SDS011;12954;50.688;10.908;2023-04-06T11:24:11;9.48;;;5.53;;
24891;SDS011;12954;50.688;10.908;2023-04-06T11:26:41;7.90;;;5.00;;
24891;SDS011;12954;50.688;10.908;2023-04-06T11:29:11;6.43;;;5.03;;
24891;SDS011;12954;50.688;10.908;2023-04-06T11:31:41;6.75;;;5.43;;
24891;SDS011;12954;50.688;10.908;2023-04-06T11:34:13;7.70;;;6.10;;
24891;SDS011;12954;50.688;10.908;2023-04-06T11:36:44;7.40;;;5.10;;
24891;SDS011;12954;50.688;10.908;2023-04-06T11:39:18;6.40;;;4.95;;
24891;SDS011;12954;50.688;10.908;2023-04-06T11:41:47;7.95;;;4.85;;
24891;SDS011;12954;50.688;10.908;2023-04-06T11:44:26;7.38;;;5.53;;
24891;SDS011;12954;50.688;10.908;2023-04-06T11:46:57;8.25;;;6.00;;
24891;SDS011;12954;50.688;10.908;2023-04-06T11:49:26;7.70;;;5.95;;
24891;SDS011;12954;50.688;10.908;2023-04-06T11:51:56;7.70;;;5.45;;
24891;SDS011;12954;50.688;10.908;2023-04-06T11:54:33;6.22;;;5.10;;
24891;SDS011;12954;50.688;10.908;2023-04-06T11:57:03;7.25;;;5.45;;
24891;SDS011;12954;50.688;10.908;2023-04-06T11:59:33;10.90;;;5.60;;
24891;SDS011;12954;50.688;10.908;2023-04-06T12:02:02;7.00;;;5.25;;
24891;SDS011;12954;50.688;10.908;2023-04-06T12:04:32;6.30;;;4.90;;
24891;SDS011;12954;50.688;10.908;2023-04-06T12:07:01;6.93;;;5.32;;
24891;SDS011;12954;50.688;10.908;2023-04-06T12:09:30;6.57;;;5.28;;
24891;SDS011;12954;50.688;10.908;2023-04-06T12:12:00;8.02;;;4.78;;
24891;SDS011;12954;50.688;10.908;2023-04-06T12:14:28;6.07;;;5.03;;
24891;SDS011;12954;50.688;10.908;2023-04-06T12:16:57;7.03;;;5.95;;
24891;SDS011;12954;50.688;10.908;2023-04-06T12:19:26;6.22;;;5.30;;
24891;SDS011;12954;50.688;10.908;2023-04-06T12:21:57;7.68;;;5.07;;
24891;SDS011;12954;50.688;10.908;2023-04-06T12:24:26;6.18;;;5.57;;
24891;SDS011;12954;50.688;10.908;2023-04-06T12:26:55;6.05;;;5.00;;
24891;SDS011;12954;50.688;10.908;2023-04-06T12:29:36;7.15;;;4.90;;
24891;SDS011;12954;50.688;10.908;2023-04-06T12:32:05;6.00;;;5.20;;
24891;SDS011;12954;50.688;10.908;2023-04-06T12:34:33;8.38;;;5.55;;
24891;SDS011;12954;50.688;10.908;2023-04-06T12:37:02;6.65;;;4.93;;
24891;SDS011;12954;50.688;10.908;2023-04-06T12:39:30;8.88;;;4.60;;
24891;SDS011;12954;50.688;10.908;2023-04-06T12:41:59;7.60;;;5.18;;
24891;SDS011;12954;50.688;10.908;2023-04-06T12:44:29;7.00;;;5.13;;
24891;SDS011;12954;50.688;10.908;2023-04-06T12:46:59;7.38;;;5.35;;
24891;SDS011;12954;50.688;10.908;2023-04-06T12:49:27;6.22;;;4.78;;
24891;SDS011;12954;50.688;10.908;2023-04-06T12:51:57;6.32;;;5.50;;
24891;SDS011;12954;50.688;10.908;2023-04-06T12:54:25;6.20;;;4.63;;
24891;SDS011;12954;50.688;10.908;2023-04-06T12:56:55;7.07;;;5.50;;
24891;SDS011;12954;50.688;10.908;2023-04-06T12:59:24;7.93;;;4.88;;
24891;SDS011;12954;50.688;10.908;2023-04-06T13:01:53;7.47;;;5.00;;
24891;SDS011;12954;50.688;10.908;2023-04-06T13:04:23;9.68;;;5.88;;
24891;SDS011;12954;50.688;10.908;2023-04-06T13:06:51;9.68;;;6.95;;
24891;SDS011;12954;50.688;10.908;2023-04-06T13:09:19;8.43;;;6.10;;
24891;SDS011;12954;50.688;10.908;2023-04-06T13:11:48;8.57;;;6.15;;
24891;SDS011;12954;50.688;10.908;2023-04-06T13:14:17;8.63;;;6.07;;
24891;SDS011;12954;50.688;10.908;2023-04-06T13:16:45;8.32;;;6.40;;
24891;SDS011;12954;50.688;10.908;2023-04-06T13:19:14;7.30;;;6.70;;
24891;SDS011;12954;50.688;10.908;2023-04-06T13:21:46;7.80;;;6.43;;
24891;SDS011;12954;50.688;10.908;2023-04-06T13:24:14;7.43;;;6.60;;
24891;SDS011;12954;50.688;10.908;2023-04-06T13:26:43;8.20;;;5.63;;
24891;SDS011;12954;50.688;10.908;2023-04-06T13:29:11;7.78;;;6.28;;
24891;SDS011;12954;50.688;10.908;2023-04-06T13:31:40;6.88;;;5.90;;
24891;SDS011;12954;50.688;10.908;2023-04-06T13:34:09;7.05;;;5.80;;
24891;SDS011;12954;50.688;10.908;2023-04-06T13:36:37;6.28;;;5.68;;
24891;SDS011;12954;50.688;10.908;2023-04-06T13:39:09;6.75;;;6.00;;
24891;SDS011;12954;50.688;10.908;2023-04-06T13:41:38;7.47;;;5.97;;
24891;SDS011;12954;50.688;10.908;2023-04-06T13:44:06;7.57;;;5.95;;
24891;SDS011;12954;50.688;10.908;2023-04-06T13:46:35;10.23;;;7.63;;
24891;SDS011;12954;50.688;10.908;2023-04-06T13:49:03;7.30;;;5.72;;
24891;SDS011;12954;50.688;10.908;2023-04-06T13:51:32;7.07;;;6.30;;
24891;SDS011;12954;50.688;10.908;2023-04-06T13:54:01;7.32;;;6.03;;
24891;SDS011;12954;50.688;10.908;2023-04-06T13:56:30;7.88;;;6.28;;
24891;SDS011;12954;50.688;10.908;2023-04-06T13:58:59;7.72;;;6.63;;
24891;SDS011;12954;50.688;10.908;2023-04-06T14:01:27;8.95;;;7.15;;
24891;SDS011;12954;50.688;10.908;2023-04-06T14:03:56;8.23;;;6.72;;
24891;SDS011;12954;50.688;10.908;2023-04-06T14:06:24;6.95;;;6.20;;
24891;SDS011;12954;50.688;10.908;2023-04-06T14:08:59;6.80;;;6.10;;
24891;SDS011;12954;50.688;10.908;2023-04-06T14:11:27;8.00;;;6.30;;
24891;SDS011;12954;50.688;10.908;2023-04-06T14:13:57;8.05;;;5.38;;
24891;SDS011;12954;50.688;10.908;2023-04-06T14:16:26;6.95;;;6.25;;
24891;SDS011;12954;50.688;10.908;2023-04-06T14:18:55;7.45;;;5.70;;
24891;SDS011;12954;50.688;10.908;2023-04-06T14:21:25;7.18;;;5.72;;
24891;SDS011;12954;50.688;10.908;2023-04-06T14:23:54;7.40;;;5.78;;
24891;SDS011;12954;50.688;10.908;2023-04-06T14:26:25;6.82;;;5.90;;
24891;SDS011;12954;50.688;10.908;2023-04-06T14:28:54;8.32;;;6.18;;
24891;SDS011;12954;50.688;10.908;2023-04-06T14:31:24;6.90;;;6.05;;
24891;SDS011;12954;50.688;10.908;2023-04-06T14:33:52;6.15;;;5.55;;
24891;SDS011;12954;50.688;10.908;2023-04-06T14:36:21;8.93;;;6.18;;
24891;SDS011;12954;50.688;10.908;2023-04-06T14:38:49;7.18;;;5.40;;
24891;SDS011;12954;50.688;10.908;2023-04-06T14:41:19;7.38;;;5.90;;
24891;SDS011;12954;50.688;10.908;2023-04-06T14:43:49;7.28;;;6.28;;
24891;SDS011;12954;50.688;10.908;2023-04-06T14:46:19;7.03;;;5.90;;
24891;SDS011;12954;50.688;10.908;2023-04-06T14:48:49;9.00;;;5.65;;
24891;SDS011;12954;50.688;10.908;2023-04-06T14:51:18;7.18;;;4.97;;